Gaylord, Michigan
Current Conditions -  °F | °C
As of 10:53 AM on Sunday 21 Dec 2014 (Local Time) from KGLR Reporting Station
Haze Haze  
Wind Chill: 18°   Ceiling: 600
Heat Index: 26°   Visibility: 3mi
Dew Point: 25°   Wind: 7mph
Humidity: 96%   Direction: 170°S
Pressure: 30.18"   Gusts: NA
Location:  45.03°N, 84.68°W
Report Text: KGLR 211553Z AUTO 17006KT 3SM BR OVC006 M03/M04 A3018 RMK AO2 SLP243 T10331039
Loading
Personal Weather Stations






























Interactive Weather Map New forecast layout! Learn more

10-Day Weather Forecast

Advertisements
Track Severe Weather on mobile